sensor_id;sensor_type;location;lat;lon;timestamp;temperature;humidity
12520;DHT22;6325;49.540;8.364;2022-07-19T00:01:10;21.40;95.30
12520;DHT22;6325;49.540;8.364;2022-07-19T00:03:37;21.70;95.20
12520;DHT22;6325;49.540;8.364;2022-07-19T00:06:05;21.50;95.60
12520;DHT22;6325;49.540;8.364;2022-07-19T00:08:33;21.50;95.80
12520;DHT22;6325;49.540;8.364;2022-07-19T00:11:00;21.70;96.60
12520;DHT22;6325;49.540;8.364;2022-07-19T00:13:27;21.40;96.40
12520;DHT22;6325;49.540;8.364;2022-07-19T00:15:54;21.50;95.30
12520;DHT22;6325;49.540;8.364;2022-07-19T00:18:21;21.20;96.30
12520;DHT22;6325;49.540;8.364;2022-07-19T00:20:48;21.80;96.30
12520;DHT22;6325;49.540;8.364;2022-07-19T00:23:15;21.80;96.30
12520;DHT22;6325;49.540;8.364;2022-07-19T00:25:44;21.40;96.20
12520;DHT22;6325;49.540;8.364;2022-07-19T00:28:11;21.40;97.30
12520;DHT22;6325;49.540;8.364;2022-07-19T00:30:38;21.80;96.70
12520;DHT22;6325;49.540;8.364;2022-07-19T00:33:05;21.00;96.90
12520;DHT22;6325;49.540;8.364;2022-07-19T00:35:34;21.30;95.90
12520;DHT22;6325;49.540;8.364;2022-07-19T00:38:04;21.30;96.10
12520;DHT22;6325;49.540;8.364;2022-07-19T00:40:31;21.30;96.60
12520;DHT22;6325;49.540;8.364;2022-07-19T00:43:00;21.30;97.30
12520;DHT22;6325;49.540;8.364;2022-07-19T00:45:27;20.90;97.20
12520;DHT22;6325;49.540;8.364;2022-07-19T00:47:54;21.20;96.60
12520;DHT22;6325;49.540;8.364;2022-07-19T00:50:22;21.10;97.90
12520;DHT22;6325;49.540;8.364;2022-07-19T00:52:51;20.70;98.10
12520;DHT22;6325;49.540;8.364;2022-07-19T00:55:19;21.50;98.30
12520;DHT22;6325;49.540;8.364;2022-07-19T00:57:46;21.10;98.30
12520;DHT22;6325;49.540;8.364;2022-07-19T01:00:16;20.90;99.30
12520;DHT22;6325;49.540;8.364;2022-07-19T01:02:43;20.60;99.60
12520;DHT22;6325;49.540;8.364;2022-07-19T01:05:11;21.00;99.90
12520;DHT22;6325;49.540;8.364;2022-07-19T01:07:40;21.60;99.90
12520;DHT22;6325;49.540;8.364;2022-07-19T01:10:09;21.10;99.90
12520;DHT22;6325;49.540;8.364;2022-07-19T01:12:37;20.80;99.90
12520;DHT22;6325;49.540;8.364;2022-07-19T01:15:12;20.70;99.90
12520;DHT22;6325;49.540;8.364;2022-07-19T01:17:41;20.70;99.90
12520;DHT22;6325;49.540;8.364;2022-07-19T01:20:08;20.70;99.90
12520;DHT22;6325;49.540;8.364;2022-07-19T01:22:37;21.00;99.90
12520;DHT22;6325;49.540;8.364;2022-07-19T01:25:05;20.80;99.90
12520;DHT22;6325;49.540;8.364;2022-07-19T01:27:37;20.70;99.90
12520;DHT22;6325;49.540;8.364;2022-07-19T01:30:11;20.60;99.90
12520;DHT22;6325;49.540;8.364;2022-07-19T01:32:38;20.50;99.90
12520;DHT22;6325;49.540;8.364;2022-07-19T01:35:07;20.50;99.90
12520;DHT22;6325;49.540;8.364;2022-07-19T01:37:34;20.50;99.90
12520;DHT22;6325;49.540;8.364;2022-07-19T01:40:04;21.20;99.90
12520;DHT22;6325;49.540;8.364;2022-07-19T01:42:32;20.40;99.90
12520;DHT22;6325;49.540;8.364;2022-07-19T01:44:59;20.30;99.90
12520;DHT22;6325;49.540;8.364;2022-07-19T01:47:26;20.30;99.90
12520;DHT22;6325;49.540;8.364;2022-07-19T01:49:53;20.70;99.90
12520;DHT22;6325;49.540;8.364;2022-07-19T01:52:20;20.10;99.90
12520;DHT22;6325;49.540;8.364;2022-07-19T01:54:47;19.90;99.90
12520;DHT22;6325;49.540;8.364;2022-07-19T01:57:16;20.20;99.90
12520;DHT22;6325;49.540;8.364;2022-07-19T01:59:43;20.60;99.90
12520;DHT22;6325;49.540;8.364;2022-07-19T02:02:10;20.20;99.90
12520;DHT22;6325;49.540;8.364;2022-07-19T02:04:38;20.30;99.90
12520;DHT22;6325;49.540;8.364;2022-07-19T02:07:05;20.20;99.90
12520;DHT22;6325;49.540;8.364;2022-07-19T02:09:31;20.30;99.90
12520;DHT22;6325;49.540;8.364;2022-07-19T02:11:58;20.20;99.90
12520;DHT22;6325;49.540;8.364;2022-07-19T02:14:27;19.60;99.90
12520;DHT22;6325;49.540;8.364;2022-07-19T02:16:54;19.90;99.90
12520;DHT22;6325;49.540;8.364;2022-07-19T02:19:21;19.90;99.90
12520;DHT22;6325;49.540;8.364;2022-07-19T02:21:48;19.90;99.90
12520;DHT22;6325;49.540;8.364;2022-07-19T02:24:15;19.80;99.90
12520;DHT22;6325;49.540;8.364;2022-07-19T02:26:42;19.20;99.90
12520;DHT22;6325;49.540;8.364;2022-07-19T02:29:09;20.20;99.90
12520;DHT22;6325;49.540;8.364;2022-07-19T02:31:38;19.90;99.90
12520;DHT22;6325;49.540;8.364;2022-07-19T02:34:05;20.00;99.90
12520;DHT22;6325;49.540;8.364;2022-07-19T02:36:33;19.90;99.90
12520;DHT22;6325;49.540;8.364;2022-07-19T02:39:00;20.00;99.90
12520;DHT22;6325;49.540;8.364;2022-07-19T02:41:27;19.30;99.90
12520;DHT22;6325;49.540;8.364;2022-07-19T02:43:54;19.80;99.90
12520;DHT22;6325;49.540;8.364;2022-07-19T02:46:21;20.30;99.90
12520;DHT22;6325;49.540;8.364;2022-07-19T02:48:49;20.10;99.90
12520;DHT22;6325;49.540;8.364;2022-07-19T02:51:16;19.60;99.90
12520;DHT22;6325;49.540;8.364;2022-07-19T02:53:43;19.60;99.90
12520;DHT22;6325;49.540;8.364;2022-07-19T02:56:10;19.50;99.90
12520;DHT22;6325;49.540;8.364;2022-07-19T02:58:38;19.40;99.90
12520;DHT22;6325;49.540;8.364;2022-07-19T03:01:05;19.90;99.90
12520;DHT22;6325;49.540;8.364;2022-07-19T03:03:32;19.80;99.90
12520;DHT22;6325;49.540;8.364;2022-07-19T03:06:15;19.40;99.90
12520;DHT22;6325;49.540;8.364;2022-07-19T03:08:43;19.30;99.90
12520;DHT22;6325;49.540;8.364;2022-07-19T03:11:11;18.90;99.90
12520;DHT22;6325;49.540;8.364;2022-07-19T03:13:38;19.20;99.90
12520;DHT22;6325;49.540;8.364;2022-07-19T03:16:05;19.20;99.90
12520;DHT22;6325;49.540;8.364;2022-07-19T03:18:32;19.10;99.90
12520;DHT22;6325;49.540;8.364;2022-07-19T03:21:00;19.60;99.90
12520;DHT22;6325;49.540;8.364;2022-07-19T03:23:31;19.70;99.90
12520;DHT22;6325;49.540;8.364;2022-07-19T03:25:58;19.30;99.90
12520;DHT22;6325;49.540;8.364;2022-07-19T03:28:26;18.50;99.90
12520;DHT22;6325;49.540;8.364;2022-07-19T03:30:55;19.10;99.90
12520;DHT22;6325;49.540;8.364;2022-07-19T03:33:22;18.90;99.90
12520;DHT22;6325;49.540;8.364;2022-07-19T03:35:49;18.80;99.90
12520;DHT22;6325;49.540;8.364;2022-07-19T03:38:16;19.00;99.90
12520;DHT22;6325;49.540;8.364;2022-07-19T03:40:45;19.00;99.90
12520;DHT22;6325;49.540;8.364;2022-07-19T03:43:13;19.50;99.90
12520;DHT22;6325;49.540;8.364;2022-07-19T03:45:41;19.10;99.90
12520;DHT22;6325;49.540;8.364;2022-07-19T03:48:08;18.80;99.90
12520;DHT22;6325;49.540;8.364;2022-07-19T03:50:36;18.90;99.90
12520;DHT22;6325;49.540;8.364;2022-07-19T03:53:04;19.10;99.90
12520;DHT22;6325;49.540;8.364;2022-07-19T03:55:31;18.90;99.90
12520;DHT22;6325;49.540;8.364;2022-07-19T03:57:59;18.80;99.90
12520;DHT22;6325;49.540;8.364;2022-07-19T04:00:26;18.90;99.90
12520;DHT22;6325;49.540;8.364;2022-07-19T04:02:53;18.80;99.90
12520;DHT22;6325;49.540;8.364;2022-07-19T04:05:21;18.90;99.90
12520;DHT22;6325;49.540;8.364;2022-07-19T04:07:48;18.70;99.90
12520;DHT22;6325;49.540;8.364;2022-07-19T04:10:15;19.10;99.90
12520;DHT22;6325;49.540;8.364;2022-07-19T04:12:42;18.90;99.90
12520;DHT22;6325;49.540;8.364;2022-07-19T04:15:10;19.00;99.90
12520;DHT22;6325;49.540;8.364;2022-07-19T04:17:37;18.60;99.90
12520;DHT22;6325;49.540;8.364;2022-07-19T04:20:05;18.50;99.90
12520;DHT22;6325;49.540;8.364;2022-07-19T04:22:33;18.70;99.90
12520;DHT22;6325;49.540;8.364;2022-07-19T04:25:00;18.20;99.90
12520;DHT22;6325;49.540;8.364;2022-07-19T04:27:29;18.80;99.90
12520;DHT22;6325;49.540;8.364;2022-07-19T04:29:56;18.70;99.90
12520;DHT22;6325;49.540;8.364;2022-07-19T04:32:25;19.00;99.90
12520;DHT22;6325;49.540;8.364;2022-07-19T04:34:53;18.80;99.90
12520;DHT22;6325;49.540;8.364;2022-07-19T04:37:23;18.70;99.90
12520;DHT22;6325;49.540;8.364;2022-07-19T04:39:50;18.40;99.90
12520;DHT22;6325;49.540;8.364;2022-07-19T04:42:17;18.70;99.90
12520;DHT22;6325;49.540;8.364;2022-07-19T04:44:44;18.60;99.90
12520;DHT22;6325;49.540;8.364;2022-07-19T04:47:12;18.50;99.90
12520;DHT22;6325;49.540;8.364;2022-07-19T04:49:40;18.80;99.90
12520;DHT22;6325;49.540;8.364;2022-07-19T04:52:07;18.80;99.90
12520;DHT22;6325;49.540;8.364;2022-07-19T04:54:35;18.60;99.90
12520;DHT22;6325;49.540;8.364;2022-07-19T04:57:02;18.80;99.90
12520;DHT22;6325;49.540;8.364;2022-07-19T04:59:29;18.80;99.90
12520;DHT22;6325;49.540;8.364;2022-07-19T05:01:58;18.90;99.90
12520;DHT22;6325;49.540;8.364;2022-07-19T05:04:25;18.70;99.90
12520;DHT22;6325;49.540;8.364;2022-07-19T05:06:55;19.40;99.90
12520;DHT22;6325;49.540;8.364;2022-07-19T05:19:56;19.00;99.90
12520;DHT22;6325;49.540;8.364;2022-07-19T05:22:47;19.10;99.90
12520;DHT22;6325;49.540;8.364;2022-07-19T05:25:54;19.10;99.90
12520;DHT22;6325;49.540;8.364;2022-07-19T05:28:26;18.90;99.90
12520;DHT22;6325;49.540;8.364;2022-07-19T05:30:57;19.10;99.90
12520;DHT22;6325;49.540;8.364;2022-07-19T05:36:31;18.70;99.90
12520;DHT22;6325;49.540;8.364;2022-07-19T05:39:19;19.10;99.90
12520;DHT22;6325;49.540;8.364;2022-07-19T05:48:26;19.40;99.90
12520;DHT22;6325;49.540;8.364;2022-07-19T05:50:53;19.80;99.90
12520;DHT22;6325;49.540;8.364;2022-07-19T05:53:19;19.20;99.90
12520;DHT22;6325;49.540;8.364;2022-07-19T05:55:46;19.70;99.90
12520;DHT22;6325;49.540;8.364;2022-07-19T05:58:13;19.70;99.90
12520;DHT22;6325;49.540;8.364;2022-07-19T06:00:46;19.80;99.90
12520;DHT22;6325;49.540;8.364;2022-07-19T06:03:28;20.40;99.90
12520;DHT22;6325;49.540;8.364;2022-07-19T06:05:55;19.80;99.90
12520;DHT22;6325;49.540;8.364;2022-07-19T06:08:22;20.60;99.90
12520;DHT22;6325;49.540;8.364;2022-07-19T06:10:49;20.00;99.90
12520;DHT22;6325;49.540;8.364;2022-07-19T06:13:16;20.40;99.90
12520;DHT22;6325;49.540;8.364;2022-07-19T06:15:43;20.60;99.90
12520;DHT22;6325;49.540;8.364;2022-07-19T06:18:09;21.00;99.90
12520;DHT22;6325;49.540;8.364;2022-07-19T06:20:38;20.70;99.90
12520;DHT22;6325;49.540;8.364;2022-07-19T06:23:04;20.80;99.90
12520;DHT22;6325;49.540;8.364;2022-07-19T06:25:31;20.80;99.90
12520;DHT22;6325;49.540;8.364;2022-07-19T06:27:58;20.90;99.90
12520;DHT22;6325;49.540;8.364;2022-07-19T06:30:25;20.80;99.90
12520;DHT22;6325;49.540;8.364;2022-07-19T06:32:52;21.20;99.90
12520;DHT22;6325;49.540;8.364;2022-07-19T06:35:19;21.30;99.90
12520;DHT22;6325;49.540;8.364;2022-07-19T06:37:47;21.30;99.90
12520;DHT22;6325;49.540;8.364;2022-07-19T06:40:14;22.00;99.90
12520;DHT22;6325;49.540;8.364;2022-07-19T06:42:41;21.20;99.90
12520;DHT22;6325;49.540;8.364;2022-07-19T06:45:08;21.10;99.90
12520;DHT22;6325;49.540;8.364;2022-07-19T06:47:35;21.70;99.90
12520;DHT22;6325;49.540;8.364;2022-07-19T06:50:03;21.50;99.90
12520;DHT22;6325;49.540;8.364;2022-07-19T06:52:30;22.00;99.90
12520;DHT22;6325;49.540;8.364;2022-07-19T06:54:58;22.00;99.90
12520;DHT22;6325;49.540;8.364;2022-07-19T06:57:25;22.10;99.90
12520;DHT22;6325;49.540;8.364;2022-07-19T06:59:52;22.80;99.90
12520;DHT22;6325;49.540;8.364;2022-07-19T07:02:18;22.40;99.90
12520;DHT22;6325;49.540;8.364;2022-07-19T07:04:45;23.00;99.90
12520;DHT22;6325;49.540;8.364;2022-07-19T07:07:12;22.90;99.90
12520;DHT22;6325;49.540;8.364;2022-07-19T07:09:39;22.40;99.90
12520;DHT22;6325;49.540;8.364;2022-07-19T07:12:09;22.50;99.90
12520;DHT22;6325;49.540;8.364;2022-07-19T07:14:36;22.90;99.90
12520;DHT22;6325;49.540;8.364;2022-07-19T07:17:03;23.00;99.90
12520;DHT22;6325;49.540;8.364;2022-07-19T07:19:30;22.80;99.90
12520;DHT22;6325;49.540;8.364;2022-07-19T07:21:56;23.20;99.90
12520;DHT22;6325;49.540;8.364;2022-07-19T07:24:26;23.50;99.90
12520;DHT22;6325;49.540;8.364;2022-07-19T07:26:54;23.30;99.90
12520;DHT22;6325;49.540;8.364;2022-07-19T07:29:22;23.50;99.90
12520;DHT22;6325;49.540;8.364;2022-07-19T07:31:49;23.70;99.90
12520;DHT22;6325;49.540;8.364;2022-07-19T07:34:16;23.70;99.90
12520;DHT22;6325;49.540;8.364;2022-07-19T07:36:43;24.10;99.90
12520;DHT22;6325;49.540;8.364;2022-07-19T07:39:10;24.20;99.90
12520;DHT22;6325;49.540;8.364;2022-07-19T07:41:37;24.30;99.70
12520;DHT22;6325;49.540;8.364;2022-07-19T07:44:04;25.00;99.90
12520;DHT22;6325;49.540;8.364;2022-07-19T07:46:32;24.60;99.20
12520;DHT22;6325;49.540;8.364;2022-07-19T07:48:59;24.70;97.40
12520;DHT22;6325;49.540;8.364;2022-07-19T07:51:26;24.80;97.20
12520;DHT22;6325;49.540;8.364;2022-07-19T07:53:53;25.00;96.90
12520;DHT22;6325;49.540;8.364;2022-07-19T07:56:20;24.90;95.90
12520;DHT22;6325;49.540;8.364;2022-07-19T07:58:46;25.50;95.50
12520;DHT22;6325;49.540;8.364;2022-07-19T08:01:13;25.50;94.60
12520;DHT22;6325;49.540;8.364;2022-07-19T08:03:42;25.20;93.60
12520;DHT22;6325;49.540;8.364;2022-07-19T08:06:09;26.30;93.60
12520;DHT22;6325;49.540;8.364;2022-07-19T08:08:36;25.40;92.90
12520;DHT22;6325;49.540;8.364;2022-07-19T08:11:04;26.40;91.50
12520;DHT22;6325;49.540;8.364;2022-07-19T08:13:31;25.90;91.10
12520;DHT22;6325;49.540;8.364;2022-07-19T08:15:58;26.70;91.10
12520;DHT22;6325;49.540;8.364;2022-07-19T08:18:25;26.20;90.00
12520;DHT22;6325;49.540;8.364;2022-07-19T08:20:53;26.20;90.60
12520;DHT22;6325;49.540;8.364;2022-07-19T08:23:20;26.30;90.20
12520;DHT22;6325;49.540;8.364;2022-07-19T08:25:47;27.30;90.50
12520;DHT22;6325;49.540;8.364;2022-07-19T08:28:13;27.10;90.70
12520;DHT22;6325;49.540;8.364;2022-07-19T08:30:40;26.90;88.30
12520;DHT22;6325;49.540;8.364;2022-07-19T08:33:08;27.10;87.20
12520;DHT22;6325;49.540;8.364;2022-07-19T08:35:35;27.40;89.00
12520;DHT22;6325;49.540;8.364;2022-07-19T08:38:03;27.60;87.90
12520;DHT22;6325;49.540;8.364;2022-07-19T08:40:33;27.70;88.10
12520;DHT22;6325;49.540;8.364;2022-07-19T08:43:02;27.80;88.00
12520;DHT22;6325;49.540;8.364;2022-07-19T08:45:30;28.00;87.70
12520;DHT22;6325;49.540;8.364;2022-07-19T08:47:57;28.10;87.90
12520;DHT22;6325;49.540;8.364;2022-07-19T08:50:25;28.20;86.50
12520;DHT22;6325;49.540;8.364;2022-07-19T08:52:52;28.40;86.10
12520;DHT22;6325;49.540;8.364;2022-07-19T08:55:20;28.40;85.90
12520;DHT22;6325;49.540;8.364;2022-07-19T08:57:48;28.50;85.00
12520;DHT22;6325;49.540;8.364;2022-07-19T09:00:26;29.00;84.50
12520;DHT22;6325;49.540;8.364;2022-07-19T09:02:55;28.90;83.20
12520;DHT22;6325;49.540;8.364;2022-07-19T09:05:23;28.90;81.20
12520;DHT22;6325;49.540;8.364;2022-07-19T09:08:01;29.00;81.00
12520;DHT22;6325;49.540;8.364;2022-07-19T09:10:29;29.10;80.50
12520;DHT22;6325;49.540;8.364;2022-07-19T09:13:02;29.00;81.00
12520;DHT22;6325;49.540;8.364;2022-07-19T09:15:53;29.30;79.30
12520;DHT22;6325;49.540;8.364;2022-07-19T09:18:21;29.60;80.50
12520;DHT22;6325;49.540;8.364;2022-07-19T09:20:50;29.80;79.30
12520;DHT22;6325;49.540;8.364;2022-07-19T09:23:18;29.90;77.80
12520;DHT22;6325;49.540;8.364;2022-07-19T09:25:48;29.80;77.90
12520;DHT22;6325;49.540;8.364;2022-07-19T09:28:16;29.90;76.20
12520;DHT22;6325;49.540;8.364;2022-07-19T09:30:45;30.20;76.70
12520;DHT22;6325;49.540;8.364;2022-07-19T09:33:13;29.70;75.50
12520;DHT22;6325;49.540;8.364;2022-07-19T09:35:43;30.40;76.40
12520;DHT22;6325;49.540;8.364;2022-07-19T09:38:21;30.60;76.90
12520;DHT22;6325;49.540;8.364;2022-07-19T09:40:51;30.70;76.40
12520;DHT22;6325;49.540;8.364;2022-07-19T09:43:18;30.90;74.60
12520;DHT22;6325;49.540;8.364;2022-07-19T09:45:48;31.10;73.60
12520;DHT22;6325;49.540;8.364;2022-07-19T09:48:15;31.30;73.50
12520;DHT22;6325;49.540;8.364;2022-07-19T09:50:43;31.70;72.30
12520;DHT22;6325;49.540;8.364;2022-07-19T09:53:13;31.60;71.30
12520;DHT22;6325;49.540;8.364;2022-07-19T09:55:40;31.60;70.40
12520;DHT22;6325;49.540;8.364;2022-07-19T09:58:08;31.70;69.90
12520;DHT22;6325;49.540;8.364;2022-07-19T10:00:37;31.90;66.60
12520;DHT22;6325;49.540;8.364;2022-07-19T10:03:05;31.80;68.40
12520;DHT22;6325;49.540;8.364;2022-07-19T10:05:33;31.80;67.10
12520;DHT22;6325;49.540;8.364;2022-07-19T10:08:01;32.20;65.50
12520;DHT22;6325;49.540;8.364;2022-07-19T10:10:28;32.30;65.50
12520;DHT22;6325;49.540;8.364;2022-07-19T10:12:57;32.40;62.60
12520;DHT22;6325;49.540;8.364;2022-07-19T10:15:26;32.60;63.00
12520;DHT22;6325;49.540;8.364;2022-07-19T10:18:01;32.60;61.80
12520;DHT22;6325;49.540;8.364;2022-07-19T10:20:29;32.70;60.20
12520;DHT22;6325;49.540;8.364;2022-07-19T10:22:58;32.90;60.40
12520;DHT22;6325;49.540;8.364;2022-07-19T10:25:38;33.30;58.90
12520;DHT22;6325;49.540;8.364;2022-07-19T10:28:05;33.10;58.40
12520;DHT22;6325;49.540;8.364;2022-07-19T10:30:53;33.40;58.50
12520;DHT22;6325;49.540;8.364;2022-07-19T10:33:29;33.50;57.00
12520;DHT22;6325;49.540;8.364;2022-07-19T10:35:56;33.60;55.90
12520;DHT22;6325;49.540;8.364;2022-07-19T10:38:23;33.70;55.20
12520;DHT22;6325;49.540;8.364;2022-07-19T10:40:51;33.80;56.70
12520;DHT22;6325;49.540;8.364;2022-07-19T10:43:22;33.90;55.30
12520;DHT22;6325;49.540;8.364;2022-07-19T10:46:11;34.10;53.90
12520;DHT22;6325;49.540;8.364;2022-07-19T10:48:40;34.40;53.60
12520;DHT22;6325;49.540;8.364;2022-07-19T10:51:10;34.40;56.30
12520;DHT22;6325;49.540;8.364;2022-07-19T10:54:02;34.70;54.00
12520;DHT22;6325;49.540;8.364;2022-07-19T10:56:33;34.90;53.90
12520;DHT22;6325;49.540;8.364;2022-07-19T10:59:02;35.00;52.80
12520;DHT22;6325;49.540;8.364;2022-07-19T11:01:33;35.10;52.70
12520;DHT22;6325;49.540;8.364;2022-07-19T11:04:23;35.10;50.90
12520;DHT22;6325;49.540;8.364;2022-07-19T11:06:51;35.00;50.30
12520;DHT22;6325;49.540;8.364;2022-07-19T11:09:18;34.70;48.80
12520;DHT22;6325;49.540;8.364;2022-07-19T11:11:48;35.10;49.30
12520;DHT22;6325;49.540;8.364;2022-07-19T11:14:20;35.10;50.90
12520;DHT22;6325;49.540;8.364;2022-07-19T11:16:59;35.30;49.80
12520;DHT22;6325;49.540;8.364;2022-07-19T11:19:28;35.20;47.30
12520;DHT22;6325;49.540;8.364;2022-07-19T11:22:00;35.40;48.40
12520;DHT22;6325;49.540;8.364;2022-07-19T11:24:27;35.30;47.30
12520;DHT22;6325;49.540;8.364;2022-07-19T11:26:57;35.30;50.50
12520;DHT22;6325;49.540;8.364;2022-07-19T11:29:52;35.40;49.20
12520;DHT22;6325;49.540;8.364;2022-07-19T11:32:20;35.50;47.00
12520;DHT22;6325;49.540;8.364;2022-07-19T11:34:53;35.60;47.50
12520;DHT22;6325;49.540;8.364;2022-07-19T11:37:25;35.70;48.00
12520;DHT22;6325;49.540;8.364;2022-07-19T11:39:52;35.90;48.10
12520;DHT22;6325;49.540;8.364;2022-07-19T11:42:30;36.00;47.90
12520;DHT22;6325;49.540;8.364;2022-07-19T11:44:58;36.20;45.80
12520;DHT22;6325;49.540;8.364;2022-07-19T11:47:31;36.10;46.30
12520;DHT22;6325;49.540;8.364;2022-07-19T11:50:03;36.20;45.80
12520;DHT22;6325;49.540;8.364;2022-07-19T11:52:41;36.10;46.20
12520;DHT22;6325;49.540;8.364;2022-07-19T11:55:09;36.50;46.00
12520;DHT22;6325;49.540;8.364;2022-07-19T11:57:38;36.50;45.60
12520;DHT22;6325;49.540;8.364;2022-07-19T12:02:50;36.30;46.00
12520;DHT22;6325;49.540;8.364;2022-07-19T12:05:17;36.30;44.50
12520;DHT22;6325;49.540;8.364;2022-07-19T12:07:47;36.80;44.90
12520;DHT22;6325;49.540;8.364;2022-07-19T12:10:39;36.70;45.00
12520;DHT22;6325;49.540;8.364;2022-07-19T12:13:08;36.80;45.40
12520;DHT22;6325;49.540;8.364;2022-07-19T12:15:51;37.00;44.70
12520;DHT22;6325;49.540;8.364;2022-07-19T12:18:21;37.30;43.90
12520;DHT22;6325;49.540;8.364;2022-07-19T12:21:15;37.30;44.10
12520;DHT22;6325;49.540;8.364;2022-07-19T12:24:16;37.10;42.90
12520;DHT22;6325;49.540;8.364;2022-07-19T12:26:52;37.00;43.40
12520;DHT22;6325;49.540;8.364;2022-07-19T12:29:22;37.10;43.10
12520;DHT22;6325;49.540;8.364;2022-07-19T12:31:51;37.30;43.10
12520;DHT22;6325;49.540;8.364;2022-07-19T12:34:20;37.10;43.20
12520;DHT22;6325;49.540;8.364;2022-07-19T12:36:47;37.50;43.50
12520;DHT22;6325;49.540;8.364;2022-07-19T12:39:22;37.60;43.20
12520;DHT22;6325;49.540;8.364;2022-07-19T12:42:01;37.70;42.00
12520;DHT22;6325;49.540;8.364;2022-07-19T12:44:29;37.60;41.60
12520;DHT22;6325;49.540;8.364;2022-07-19T12:46:57;37.70;40.90
12520;DHT22;6325;49.540;8.364;2022-07-19T12:49:40;37.70;40.50
12520;DHT22;6325;49.540;8.364;2022-07-19T12:52:07;38.00;40.80
12520;DHT22;6325;49.540;8.364;2022-07-19T12:54:34;37.80;40.70
12520;DHT22;6325;49.540;8.364;2022-07-19T12:57:01;37.80;40.00
12520;DHT22;6325;49.540;8.364;2022-07-19T12:59:27;37.80;40.70
12520;DHT22;6325;49.540;8.364;2022-07-19T13:02:08;38.20;39.60
12520;DHT22;6325;49.540;8.364;2022-07-19T13:04:37;38.00;40.30
12520;DHT22;6325;49.540;8.364;2022-07-19T13:07:04;37.90;39.40
12520;DHT22;6325;49.540;8.364;2022-07-19T13:09:32;38.10;40.40
12520;DHT22;6325;49.540;8.364;2022-07-19T13:11:59;38.30;41.00
12520;DHT22;6325;49.540;8.364;2022-07-19T13:14:27;38.40;40.20
12520;DHT22;6325;49.540;8.364;2022-07-19T13:16:53;38.40;40.80
12520;DHT22;6325;49.540;8.364;2022-07-19T13:19:20;38.50;39.60
12520;DHT22;6325;49.540;8.364;2022-07-19T13:21:49;38.60;39.00
12520;DHT22;6325;49.540;8.364;2022-07-19T13:24:17;38.60;41.90
12520;DHT22;6325;49.540;8.364;2022-07-19T13:26:44;38.50;39.00
12520;DHT22;6325;49.540;8.364;2022-07-19T13:29:11;38.80;41.50
12520;DHT22;6325;49.540;8.364;2022-07-19T13:31:38;38.90;39.80
12520;DHT22;6325;49.540;8.364;2022-07-19T13:34:05;38.90;38.90
12520;DHT22;6325;49.540;8.364;2022-07-19T13:36:32;39.00;38.70
12520;DHT22;6325;49.540;8.364;2022-07-19T13:39:00;38.90;37.20
12520;DHT22;6325;49.540;8.364;2022-07-19T13:41:27;39.00;37.50
12520;DHT22;6325;49.540;8.364;2022-07-19T13:43:54;39.00;37.90
12520;DHT22;6325;49.540;8.364;2022-07-19T13:46:21;39.00;38.00
12520;DHT22;6325;49.540;8.364;2022-07-19T13:48:48;39.10;37.60
12520;DHT22;6325;49.540;8.364;2022-07-19T13:51:15;39.30;37.60
12520;DHT22;6325;49.540;8.364;2022-07-19T13:53:43;38.90;37.90
12520;DHT22;6325;49.540;8.364;2022-07-19T13:56:12;38.90;37.10
12520;DHT22;6325;49.540;8.364;2022-07-19T13:58:39;39.00;37.30
12520;DHT22;6325;49.540;8.364;2022-07-19T14:01:05;39.10;38.70
12520;DHT22;6325;49.540;8.364;2022-07-19T14:03:32;39.10;37.80
12520;DHT22;6325;49.540;8.364;2022-07-19T14:05:59;39.20;37.10
12520;DHT22;6325;49.540;8.364;2022-07-19T14:08:26;39.20;36.90
12520;DHT22;6325;49.540;8.364;2022-07-19T14:10:53;39.30;36.70
12520;DHT22;6325;49.540;8.364;2022-07-19T14:13:22;39.40;37.80
12520;DHT22;6325;49.540;8.364;2022-07-19T14:15:48;39.80;38.80
12520;DHT22;6325;49.540;8.364;2022-07-19T14:18:16;39.90;36.90
12520;DHT22;6325;49.540;8.364;2022-07-19T14:20:43;39.60;37.20
12520;DHT22;6325;49.540;8.364;2022-07-19T14:23:10;39.80;36.90
12520;DHT22;6325;49.540;8.364;2022-07-19T14:25:38;39.90;36.30
12520;DHT22;6325;49.540;8.364;2022-07-19T14:28:05;39.80;36.30
12520;DHT22;6325;49.540;8.364;2022-07-19T14:30:34;40.10;37.00
12520;DHT22;6325;49.540;8.364;2022-07-19T14:33:02;40.00;35.20
12520;DHT22;6325;49.540;8.364;2022-07-19T14:35:29;40.00;35.70
12520;DHT22;6325;49.540;8.364;2022-07-19T14:37:56;39.90;35.40
12520;DHT22;6325;49.540;8.364;2022-07-19T14:40:23;39.60;35.60
12520;DHT22;6325;49.540;8.364;2022-07-19T14:42:50;39.90;36.10
12520;DHT22;6325;49.540;8.364;2022-07-19T14:45:17;40.00;37.00
12520;DHT22;6325;49.540;8.364;2022-07-19T14:47:45;39.80;35.00
12520;DHT22;6325;49.540;8.364;2022-07-19T14:50:13;40.20;37.20
12520;DHT22;6325;49.540;8.364;2022-07-19T14:52:40;40.10;34.20
12520;DHT22;6325;49.540;8.364;2022-07-19T14:55:08;40.30;37.50
12520;DHT22;6325;49.540;8.364;2022-07-19T14:57:35;40.30;35.60
12520;DHT22;6325;49.540;8.364;2022-07-19T15:00:04;40.20;37.20
12520;DHT22;6325;49.540;8.364;2022-07-19T15:02:31;40.40;36.20
12520;DHT22;6325;49.540;8.364;2022-07-19T15:04:59;40.40;36.10
12520;DHT22;6325;49.540;8.364;2022-07-19T15:07:26;40.80;36.50
12520;DHT22;6325;49.540;8.364;2022-07-19T15:09:53;40.80;36.20
12520;DHT22;6325;49.540;8.364;2022-07-19T15:12:21;40.60;35.90
12520;DHT22;6325;49.540;8.364;2022-07-19T15:14:48;40.40;35.20
12520;DHT22;6325;49.540;8.364;2022-07-19T15:17:16;40.90;34.80
12520;DHT22;6325;49.540;8.364;2022-07-19T15:19:43;41.00;33.00
12520;DHT22;6325;49.540;8.364;2022-07-19T15:22:12;41.30;32.90
12520;DHT22;6325;49.540;8.364;2022-07-19T15:24:39;40.90;35.80
12520;DHT22;6325;49.540;8.364;2022-07-19T15:27:06;40.80;33.40
12520;DHT22;6325;49.540;8.364;2022-07-19T15:29:33;41.10;35.80
12520;DHT22;6325;49.540;8.364;2022-07-19T15:32:00;41.00;34.90
12520;DHT22;6325;49.540;8.364;2022-07-19T15:34:27;41.30;36.90
12520;DHT22;6325;49.540;8.364;2022-07-19T15:36:54;40.50;34.00
12520;DHT22;6325;49.540;8.364;2022-07-19T15:39:24;40.90;36.50
12520;DHT22;6325;49.540;8.364;2022-07-19T15:41:53;41.00;35.20
12520;DHT22;6325;49.540;8.364;2022-07-19T15:44:20;40.70;33.20
12520;DHT22;6325;49.540;8.364;2022-07-19T15:46:47;41.30;34.10
12520;DHT22;6325;49.540;8.364;2022-07-19T15:49:16;41.10;35.60
12520;DHT22;6325;49.540;8.364;2022-07-19T15:51:43;41.40;35.30
12520;DHT22;6325;49.540;8.364;2022-07-19T15:54:14;42.00;34.30
12520;DHT22;6325;49.540;8.364;2022-07-19T15:56:42;41.80;34.30
12520;DHT22;6325;49.540;8.364;2022-07-19T15:59:09;42.60;34.50
12520;DHT22;6325;49.540;8.364;2022-07-19T16:01:36;42.60;33.80
12520;DHT22;6325;49.540;8.364;2022-07-19T16:04:03;43.00;33.00
12520;DHT22;6325;49.540;8.364;2022-07-19T16:06:31;43.20;34.20
12520;DHT22;6325;49.540;8.364;2022-07-19T16:08:58;43.50;34.00
12520;DHT22;6325;49.540;8.364;2022-07-19T16:11:26;44.00;33.90
12520;DHT22;6325;49.540;8.364;2022-07-19T16:13:55;44.00;32.20
12520;DHT22;6325;49.540;8.364;2022-07-19T16:16:22;44.60;33.40
12520;DHT22;6325;49.540;8.364;2022-07-19T16:18:51;44.30;34.20